Zawiyat Shammas, Egypt
Current Conditions -  °F | °C
As of 4:00 AM on Friday 21 Nov 2014 (Local Time) from HEMM Reporting Station
Scattered Clouds Scattered Clouds  
Wind Chill: 59°   Ceiling: Unl
Heat Index: 59°   Visibility: 6mi
Dew Point: 57°   Wind: 12mph
Humidity: 94%   Direction: 270°W
Pressure: 30"   Gusts: NA
Location:  31.52°N, 26.4°E
Report Text: HEMM 210200Z 27010KT 9999 SCT020 15/14 Q1016 NOSIG
Loading
Personal Weather Stations






























Interactive Weather Map New forecast layout! Learn more

10-Day Weather Forecast

Advertisements
Track Severe Weather on mobile